Time;durP1;ratioP1;P1;durP2;ratioP2;P2;SDS_P1;SDS_P2;PMS_P1;PMS_P2;Temp;Humidity;BMP_temperature;BMP_pressure;BME280_temperature;BME280_humidity;BME280_pressure;Samples;Min_cycle;Max_cycle;Signal;HPM_P1;HPM_P2
2023/02/26 00:02:29;;;;;;;13.57;8.32;;;;;;;;;;10448513;28;20032;-50
2023/02/26 00:07:30;;;;;;;11.02;8.10;;;;;;;;;;10449057;28;20033;-52
2023/02/26 00:12:31;;;;;;;12.93;8.73;;;;;;;;;;10448231;28;20028;-53
2023/02/26 00:18:02;;;;;;;13.63;8.48;;;;;;;;;;10448091;28;20113;-54
2023/02/26 00:23:03;;;;;;;12.57;8.55;;;;;;;;;;10431109;28;20033;-53
2023/02/26 00:28:04;;;;;;;12.13;8.32;;;;;;;;;;10447737;28;20051;-55
2023/02/26 00:33:05;;;;;;;13.35;7.63;;;;;;;;;;10447770;28;20025;-57
2023/02/26 00:38:10;;;;;;;11.60;8.40;;;;;;;;;;10448285;28;20540;-57
2023/02/26 00:43:23;;;;;;;13.25;9.20;;;;;;;;;;10394100;28;1131768;-58
2023/02/26 00:48:36;;;;;;;11.25;7.75;;;;;;;;;;10457512;28;20048;-59
2023/02/26 00:54:08;;;;;;;11.45;8.32;;;;;;;;;;10457202;28;20071;-59
2023/02/26 00:59:09;;;;;;;13.52;8.38;;;;;;;;;;10456016;28;20033;-59
2023/02/26 01:04:11;;;;;;;12.27;7.75;;;;;;;;;;10457121;28;20030;-58
2023/02/26 01:09:35;;;;;;;13.70;8.43;;;;;;;;;;10456763;28;20033;-58
2023/02/26 01:14:36;;;;;;;16.42;10.02;;;;;;;;;;10456358;28;20104;-58
2023/02/26 01:20:09;;;;;;;18.40;10.25;;;;;;;;;;10455505;28;20395;-58
2023/02/26 01:25:23;;;;;;;29.23;9.35;;;;;;;;;;10455871;28;20361;-57
2023/02/26 01:30:25;;;;;;;23.40;9.27;;;;;;;;;;10439496;28;20029;-54
2023/02/26 01:35:49;;;;;;;18.75;8.60;;;;;;;;;;10456488;28;20039;-53
2023/02/26 01:41:16;;;;;;;17.73;7.70;;;;;;;;;;10455550;28;20107;-52
2023/02/26 01:46:35;;;;;;;26.65;8.43;;;;;;;;;;10455031;28;20277;-52
2023/02/26 01:51:47;;;;;;;16.95;7.13;;;;;;;;;;10455426;28;20044;-55
2023/02/26 01:56:54;;;;;;;20.63;6.85;;;;;;;;;;10437252;28;20032;-56
2023/02/26 02:01:57;;;;;;;15.55;6.70;;;;;;;;;;10453432;28;20029;-55
2023/02/26 02:06:58;;;;;;;18.17;5.70;;;;;;;;;;10455375;28;20033;-56
2023/02/26 02:12:07;;;;;;;19.35;6.47;;;;;;;;;;10454697;28;20491;-55
2023/02/26 02:17:17;;;;;;;14.40;5.57;;;;;;;;;;10454072;28;20167;-56
2023/02/26 02:22:51;;;;;;;11.73;6.00;;;;;;;;;;10436334;28;20025;-57
2023/02/26 02:28:17;;;;;;;11.07;5.78;;;;;;;;;;10452687;28;20021;-57
2023/02/26 02:33:22;;;;;;;11.32;5.07;;;;;;;;;;10453150;28;20110;-55
2023/02/26 02:38:36;;;;;;;5.95;3.90;;;;;;;;;;10435873;28;20418;-56
2023/02/26 02:43:40;;;;;;;7.35;4.30;;;;;;;;;;10451751;28;20095;-58
2023/02/26 02:48:48;;;;;;;15.10;3.80;;;;;;;;;;10435770;28;20041;-56
2023/02/26 02:54:09;;;;;;;11.95;4.03;;;;;;;;;;10451959;28;20032;-57
2023/02/26 02:59:34;;;;;;;9.45;3.60;;;;;;;;;;10451225;28;20052;-57
2023/02/26 03:04:35;;;;;;;4.25;3.20;;;;;;;;;;10451916;28;20024;-58
2023/02/26 03:09:36;;;;;;;10.82;3.88;;;;;;;;;;10451776;28;20052;-55
2023/02/26 03:14:37;;;;;;;11.30;3.53;;;;;;;;;;10452113;28;20048;-55
2023/02/26 03:20:08;;;;;;;11.63;3.42;;;;;;;;;;10451554;28;20221;-57
2023/02/26 03:25:29;;;;;;;7.40;2.70;;;;;;;;;;10437090;28;20057;-58
2023/02/26 03:30:51;;;;;;;11.25;3.55;;;;;;;;;;10450132;28;20037;-58
2023/02/26 03:36:18;;;;;;;5.45;2.80;;;;;;;;;;10450967;28;20036;-57
2023/02/26 03:41:32;;;;;;;4.80;2.17;;;;;;;;;;10450873;28;20029;-56
2023/02/26 03:46:40;;;;;;;5.28;2.53;;;;;;;;;;10449364;28;20056;-57
2023/02/26 03:51:41;;;;;;;10.37;2.67;;;;;;;;;;10449576;28;20025;-58
2023/02/26 03:56:45;;;;;;;3.47;2.30;;;;;;;;;;10451009;28;20450;-59
2023/02/26 04:01:58;;;;;;;9.90;2.50;;;;;;;;;;10432432;28;20028;-56
2023/02/26 04:07:00;;;;;;;6.03;2.65;;;;;;;;;;10448884;28;20500;-56
2023/02/26 04:12:01;;;;;;;3.33;2.38;;;;;;;;;;10448608;28;20025;-58
2023/02/26 04:17:01;;;;;;;3.22;2.10;;;;;;;;;;10448746;28;20033;-59
2023/02/26 04:22:02;;;;;;;4.10;1.98;;;;;;;;;;10449627;28;20044;-58
2023/02/26 04:27:03;;;;;;;6.97;2.10;;;;;;;;;;10450002;28;20568;-56
2023/02/26 04:32:03;;;;;;;3.30;2.20;;;;;;;;;;10449299;28;20126;-54
2023/02/26 04:37:04;;;;;;;6.93;2.00;;;;;;;;;;10447981;28;20028;-56
2023/02/26 04:42:04;;;;;;;3.05;2.03;;;;;;;;;;10448153;28;20032;-57
2023/02/26 04:47:05;;;;;;;7.38;2.10;;;;;;;;;;10447702;28;20029;-57
2023/02/26 04:52:05;;;;;;;3.22;1.88;;;;;;;;;;10447653;28;20496;-58
2023/02/26 04:57:06;;;;;;;3.40;1.88;;;;;;;;;;10449160;28;20480;-58
2023/02/26 05:02:08;;;;;;;1.65;1.55;;;;;;;;;;10448889;28;20031;-56
2023/02/26 05:07:08;;;;;;;5.18;1.98;;;;;;;;;;10447477;28;20033;-59
2023/02/26 05:12:09;;;;;;;2.70;1.60;;;;;;;;;;10448214;28;20037;-58
2023/02/26 05:17:10;;;;;;;2.17;1.70;;;;;;;;;;10447277;28;20021;-59
2023/02/26 05:22:11;;;;;;;2.47;1.90;;;;;;;;;;10448532;28;20075;-57
2023/02/26 05:27:12;;;;;;;2.83;2.03;;;;;;;;;;10449134;28;20017;-57
2023/02/26 05:32:12;;;;;;;7.57;2.42;;;;;;;;;;10456362;28;20033;-55
2023/02/26 05:37:13;;;;;;;2.65;1.88;;;;;;;;;;10455704;28;20174;-56
2023/02/26 05:42:14;;;;;;;2.40;1.85;;;;;;;;;;10454849;28;20029;-59
2023/02/26 05:47:15;;;;;;;2.33;1.70;;;;;;;;;;10455378;28;20025;-58
2023/02/26 05:52:15;;;;;;;3.17;2.13;;;;;;;;;;10455504;28;20078;-59
2023/02/26 05:57:16;;;;;;;3.20;2.38;;;;;;;;;;10455491;28;20089;-59
2023/02/26 06:02:17;;;;;;;3.17;2.00;;;;;;;;;;10455070;28;20025;-58
2023/02/26 06:07:17;;;;;;;3.83;2.33;;;;;;;;;;10455039;28;20029;-57
2023/02/26 06:12:18;;;;;;;2.25;1.80;;;;;;;;;;10454512;28;20029;-58
2023/02/26 06:17:19;;;;;;;4.97;1.90;;;;;;;;;;10454582;28;20028;-57
2023/02/26 06:22:19;;;;;;;1.90;1.70;;;;;;;;;;10453987;28;20033;-57
2023/02/26 06:27:21;;;;;;;5.10;2.47;;;;;;;;;;10453745;28;20071;-57
2023/02/26 06:32:22;;;;;;;1.70;1.60;;;;;;;;;;10453485;28;20472;-58
2023/02/26 06:37:22;;;;;;;2.47;2.17;;;;;;;;;;10453905;28;20059;-58
2023/02/26 06:42:23;;;;;;;3.03;1.73;;;;;;;;;;10452092;28;20025;-58
2023/02/26 06:47:23;;;;;;;2.05;1.88;;;;;;;;;;10453021;28;20021;-58
2023/02/26 06:52:24;;;;;;;2.88;1.60;;;;;;;;;;10452472;28;20040;-56
2023/02/26 06:57:25;;;;;;;2.65;1.90;;;;;;;;;;10452348;28;20037;-59
2023/02/26 07:02:25;;;;;;;1.80;1.60;;;;;;;;;;10452454;28;20569;-58
2023/02/26 07:07:26;;;;;;;2.55;1.88;;;;;;;;;;10452199;28;20048;-57
2023/02/26 07:12:27;;;;;;;2.28;1.70;;;;;;;;;;10451821;28;20506;-58
2023/02/26 07:17:27;;;;;;;2.00;1.55;;;;;;;;;;10451841;28;20043;-55
2023/02/26 07:22:28;;;;;;;2.03;1.60;;;;;;;;;;10450899;28;20487;-56
2023/02/26 07:27:28;;;;;;;2.95;1.63;;;;;;;;;;10452013;28;20029;-56
2023/02/26 07:32:29;;;;;;;3.15;1.40;;;;;;;;;;10451545;28;20476;-58
2023/02/26 07:37:30;;;;;;;2.08;1.48;;;;;;;;;;10451092;28;20033;-58
2023/02/26 07:42:30;;;;;;;2.58;1.50;;;;;;;;;;10450554;28;20045;-58
2023/02/26 07:47:31;;;;;;;1.65;1.40;;;;;;;;;;10450591;28;20025;-58
2023/02/26 07:52:31;;;;;;;1.70;1.55;;;;;;;;;;10450518;28;20036;-56
2023/02/26 07:57:32;;;;;;;1.17;1.17;;;;;;;;;;10450289;28;20464;-57
2023/02/26 08:02:33;;;;;;;4.57;1.50;;;;;;;;;;10450142;28;20029;-57
2023/02/26 08:07:33;;;;;;;1.70;1.33;;;;;;;;;;10450165;28;20236;-58
2023/02/26 08:12:35;;;;;;;2.67;1.42;;;;;;;;;;10449858;28;20131;-58
2023/02/26 08:17:36;;;;;;;2.47;1.77;;;;;;;;;;10449825;28;20338;-57
2023/02/26 08:22:37;;;;;;;1.83;1.38;;;;;;;;;;10449056;28;20029;-57
2023/02/26 08:27:37;;;;;;;1.65;1.48;;;;;;;;;;10448926;28;20112;-58
2023/02/26 08:32:40;;;;;;;1.73;1.17;;;;;;;;;;10449279;28;20395;-58
2023/02/26 08:37:41;;;;;;;1.58;1.20;;;;;;;;;;10449318;28;20582;-58
2023/02/26 08:42:42;;;;;;;1.30;1.20;;;;;;;;;;10449399;28;20059;-58
2023/02/26 08:47:44;;;;;;;2.97;1.70;;;;;;;;;;10449675;28;20048;-57
2023/02/26 08:52:45;;;;;;;2.95;1.30;;;;;;;;;;10449478;28;20037;-57
2023/02/26 08:57:45;;;;;;;2.15;1.30;;;;;;;;;;10450052;28;20457;-57
2023/02/26 09:02:46;;;;;;;1.88;1.08;;;;;;;;;;10450301;28;20036;-57
2023/02/26 09:07:47;;;;;;;3.58;1.40;;;;;;;;;;10458692;28;20476;-57
2023/02/26 09:12:47;;;;;;;7.38;1.38;;;;;;;;;;10456605;28;20528;-57
2023/02/26 09:17:48;;;;;;;4.18;1.42;;;;;;;;;;10456108;28;20070;-57
2023/02/26 09:22:49;;;;;;;1.98;1.25;;;;;;;;;;10456196;28;20032;-57
2023/02/26 09:27:49;;;;;;;12.23;1.63;;;;;;;;;;10455958;28;20029;-58
2023/02/26 09:32:50;;;;;;;4.55;1.42;;;;;;;;;;10455894;28;20104;-59
2023/02/26 09:37:50;;;;;;;1.35;1.08;;;;;;;;;;10438142;28;20361;-57
2023/02/26 09:43:36;;;;;;;4.82;1.20;;;;;;;;;;10455274;28;20045;-58
2023/02/26 09:48:38;;;;;;;1.85;1.15;;;;;;;;;;10384109;28;20048;-57
2023/02/26 09:53:40;;;;;;;4.25;1.25;;;;;;;;;;10453670;28;20074;-58
2023/02/26 09:58:41;;;;;;;1.25;0.98;;;;;;;;;;10454911;28;20037;-58
2023/02/26 10:04:23;;;;;;;2.45;1.63;;;;;;;;;;10454365;28;20575;-57
2023/02/26 10:10:01;;;;;;;2.60;0.90;;;;;;;;;;10422985;28;20494;-58
2023/02/26 10:15:09;;;;;;;2.17;1.10;;;;;;;;;;10453594;28;20025;-58
2023/02/26 10:20:21;;;;;;;4.00;1.30;;;;;;;;;;10452444;28;20543;-57
2023/02/26 10:25:29;;;;;;;1.52;1.00;;;;;;;;;;10451250;28;20092;-58
2023/02/26 10:30:45;;;;;;;3.15;1.38;;;;;;;;;;10452634;28;20024;-58
2023/02/26 10:35:53;;;;;;;2.13;1.10;;;;;;;;;;10451604;28;20086;-57
2023/02/26 10:41:12;;;;;;;3.60;1.07;;;;;;;;;;10453731;28;20107;-57
2023/02/26 10:47:06;;;;;;;1.27;1.17;;;;;;;;;;10451503;28;20112;-58
2023/02/26 10:52:17;;;;;;;4.22;1.00;;;;;;;;;;10414354;28;20106;-58
2023/02/26 10:57:27;;;;;;;3.95;1.20;;;;;;;;;;10452006;28;20028;-58
2023/02/26 11:02:48;;;;;;;1.38;0.90;;;;;;;;;;10434556;28;20411;-58
2023/02/26 11:07:59;;;;;;;5.25;1.23;;;;;;;;;;10451037;28;20351;-58
2023/02/26 11:13:00;;;;;;;1.10;1.00;;;;;;;;;;10451897;28;20024;-58
2023/02/26 11:18:01;;;;;;;1.60;1.00;;;;;;;;;;10452220;28;20386;-58
2023/02/26 11:23:06;;;;;;;1.75;1.00;;;;;;;;;;10449508;28;20028;-58
2023/02/26 11:28:22;;;;;;;2.50;1.35;;;;;;;;;;10449768;28;20032;-57
2023/02/26 11:33:33;;;;;;;1.45;1.20;;;;;;;;;;10450573;28;20036;-58
2023/02/26 11:38:34;;;;;;;2.22;1.00;;;;;;;;;;10450556;28;20068;-57
2023/02/26 11:43:41;;;;;;;2.63;1.20;;;;;;;;;;10448820;28;20144;-57
2023/02/26 11:48:48;;;;;;;2.95;0.98;;;;;;;;;;10433135;28;20017;-57
2023/02/26 11:54:00;;;;;;;3.20;1.30;;;;;;;;;;10449019;28;20395;-58
2023/02/26 11:59:15;;;;;;;1.08;1.00;;;;;;;;;;10450755;28;20027;-59
2023/02/26 12:04:24;;;;;;;1.50;1.00;;;;;;;;;;10449953;28;20036;-57
2023/02/26 12:09:25;;;;;;;1.95;1.00;;;;;;;;;;10450411;28;20039;-58
2023/02/26 12:14:38;;;;;;;1.10;1.00;;;;;;;;;;10449209;28;20032;-58
2023/02/26 12:19:42;;;;;;;2.45;1.30;;;;;;;;;;10450042;28;20031;-58
2023/02/26 12:24:49;;;;;;;3.90;1.00;;;;;;;;;;10450082;28;20025;-58
2023/02/26 12:30:22;;;;;;;2.75;1.17;;;;;;;;;;10448483;28;20033;-58
2023/02/26 12:35:55;;;;;;;2.28;1.40;;;;;;;;;;10447634;28;20037;-58
2023/02/26 12:41:39;;;;;;;2.00;1.30;;;;;;;;;;10456407;28;20036;-58
2023/02/26 12:46:58;;;;;;;3.70;1.30;;;;;;;;;;10457271;28;20044;-58
2023/02/26 12:52:11;;;;;;;2.17;1.50;;;;;;;;;;10456965;28;20044;-58
2023/02/26 12:58:08;;;;;;;2.35;1.23;;;;;;;;;;10457301;28;20021;-59
2023/02/26 13:03:36;;;;;;;1.48;1.13;;;;;;;;;;10432359;28;20037;-58
2023/02/26 13:09:01;;;;;;;2.37;1.60;;;;;;;;;;10456263;28;20025;-58
2023/02/26 13:14:29;;;;;;;4.30;1.40;;;;;;;;;;10456256;28;20033;-57
2023/02/26 13:19:38;;;;;;;2.90;1.48;;;;;;;;;;10456743;28;20068;-58
2023/02/26 13:24:45;;;;;;;4.35;1.40;;;;;;;;;;10455786;28;20029;-58
2023/02/26 13:30:03;;;;;;;2.25;1.40;;;;;;;;;;10454956;28;20514;-57
2023/02/26 13:35:25;;;;;;;2.17;1.53;;;;;;;;;;10439212;28;20036;-58
2023/02/26 13:40:38;;;;;;;1.55;1.17;;;;;;;;;;10440765;28;20074;-57
2023/02/26 13:46:11;;;;;;;3.15;1.67;;;;;;;;;;10437486;28;20049;-57
2023/02/26 13:51:27;;;;;;;1.73;1.27;;;;;;;;;;10453649;28;20200;-55
2023/02/26 13:56:31;;;;;;;2.10;1.38;;;;;;;;;;10455085;28;20529;-54
2023/02/26 14:01:49;;;;;;;1.50;1.13;;;;;;;;;;10454756;28;20690;-57
2023/02/26 14:06:58;;;;;;;6.47;1.95;;;;;;;;;;10454553;28;20370;-55
2023/02/26 14:12:20;;;;;;;1.30;1.20;;;;;;;;;;10437082;28;20072;-56
2023/02/26 14:17:29;;;;;;;2.25;1.35;;;;;;;;;;10454074;28;20063;-59
2023/02/26 14:22:31;;;;;;;2.78;1.20;;;;;;;;;;10436888;28;20060;-56
2023/02/26 14:27:41;;;;;;;4.05;1.30;;;;;;;;;;10454228;28;20086;-57
2023/02/26 14:32:53;;;;;;;2.92;1.50;;;;;;;;;;10453879;28;20047;-55
2023/02/26 14:38:06;;;;;;;2.45;1.20;;;;;;;;;;10453549;28;20107;-55
2023/02/26 14:43:29;;;;;;;1.25;1.15;;;;;;;;;;10435659;28;20605;-55
2023/02/26 14:48:31;;;;;;;2.38;1.20;;;;;;;;;;10452830;28;20529;-54
2023/02/26 14:54:00;;;;;;;3.92;1.27;;;;;;;;;;10452655;28;20488;-55
2023/02/26 14:59:41;;;;;;;0.98;0.90;;;;;;;;;;10453070;28;20036;-55
2023/02/26 15:05:06;;;;;;;1.38;1.27;;;;;;;;;;10452055;28;20276;-55
2023/02/26 15:10:28;;;;;;;1.25;1.13;;;;;;;;;;10452419;28;20036;-57
2023/02/26 15:15:52;;;;;;;2.30;1.30;;;;;;;;;;10452240;28;20036;-55
2023/02/26 15:21:34;;;;;;;1.85;1.10;;;;;;;;;;10451392;28;20033;-52
2023/02/26 15:26:45;;;;;;;1.60;1.10;;;;;;;;;;10448502;28;20060;-53
2023/02/26 15:31:57;;;;;;;2.47;1.40;;;;;;;;;;10451063;28;20357;-56
2023/02/26 15:36:58;;;;;;;1.20;1.10;;;;;;;;;;10451409;28;20104;-56
2023/02/26 15:41:58;;;;;;;1.45;1.20;;;;;;;;;;10451009;28;20456;-55
2023/02/26 15:47:03;;;;;;;1.20;1.10;;;;;;;;;;10450323;28;20389;-56
2023/02/26 15:52:07;;;;;;;1.00;1.00;;;;;;;;;;10449336;28;20029;-56
2023/02/26 15:57:11;;;;;;;0.93;0.93;;;;;;;;;;10433152;28;20272;-58
2023/02/26 16:02:18;;;;;;;1.77;1.20;;;;;;;;;;10432487;28;20052;-56
2023/02/26 16:07:19;;;;;;;1.33;1.10;;;;;;;;;;10449881;28;20029;-55
2023/02/26 16:12:37;;;;;;;1.25;0.98;;;;;;;;;;10449855;28;20098;-56
2023/02/26 16:17:44;;;;;;;1.17;1.08;;;;;;;;;;10450067;28;20116;-55
2023/02/26 16:22:49;;;;;;;1.10;1.00;;;;;;;;;;10449871;28;20292;-57
2023/02/26 16:28:03;;;;;;;1.58;1.00;;;;;;;;;;10431836;28;20021;-54
2023/02/26 16:33:11;;;;;;;1.17;1.08;;;;;;;;;;10448984;28;20052;-56
2023/02/26 16:38:24;;;;;;;1.33;1.15;;;;;;;;;;10431837;28;20484;-57
2023/02/26 16:43:43;;;;;;;1.15;1.05;;;;;;;;;;10447707;28;20125;-57
2023/02/26 16:49:33;;;;;;;1.30;1.20;;;;;;;;;;10448931;28;20029;-56
2023/02/26 16:54:40;;;;;;;1.92;1.17;;;;;;;;;;10443800;28;20037;-54
2023/02/26 16:59:42;;;;;;;1.55;1.10;;;;;;;;;;10431723;28;20160;-56
2023/02/26 17:04:48;;;;;;;1.40;1.00;;;;;;;;;;10448463;28;20499;-57
2023/02/26 17:09:52;;;;;;;1.38;1.20;;;;;;;;;;10449084;28;20033;-56
2023/02/26 17:14:57;;;;;;;1.05;1.05;;;;;;;;;;10448959;28;20133;-54
2023/02/26 17:19:58;;;;;;;1.10;1.10;;;;;;;;;;10448834;28;20028;-54
2023/02/26 17:24:58;;;;;;;1.45;1.15;;;;;;;;;;10452214;28;20037;-55
2023/02/26 17:30:03;;;;;;;1.75;1.20;;;;;;;;;;10455879;28;20044;-55
2023/02/26 17:35:05;;;;;;;2.28;1.23;;;;;;;;;;10438828;28;20025;-55
2023/02/26 17:40:38;;;;;;;1.25;1.17;;;;;;;;;;10455441;28;20380;-54
2023/02/26 17:45:39;;;;;;;1.00;1.00;;;;;;;;;;10455354;28;20453;-54
2023/02/26 17:50:56;;;;;;;1.33;1.10;;;;;;;;;;10454709;28;20033;-54
2023/02/26 17:55:58;;;;;;;1.20;1.10;;;;;;;;;;10454768;28;20029;-54
2023/02/26 18:01:02;;;;;;;1.52;1.20;;;;;;;;;;10454260;28;20067;-57
2023/02/26 18:06:03;;;;;;;1.60;1.40;;;;;;;;;;10453868;28;20476;-53
2023/02/26 18:11:03;;;;;;;20.50;2.67;;;;;;;;;;10454106;28;20033;-55
2023/02/26 18:16:05;;;;;;;20.63;2.30;;;;;;;;;;10453793;28;20499;-56
2023/02/26 18:21:07;;;;;;;9.40;2.45;;;;;;;;;;10434989;28;20036;-55
2023/02/26 18:26:10;;;;;;;6.32;1.98;;;;;;;;;;10453013;28;20056;-57
2023/02/26 18:31:11;;;;;;;6.10;2.30;;;;;;;;;;10453700;28;20037;-56
2023/02/26 18:36:32;;;;;;;3.45;1.40;;;;;;;;;;10434777;28;20440;-54
2023/02/26 18:41:32;;;;;;;4.38;1.70;;;;;;;;;;10453560;28;20037;-57
2023/02/26 18:46:37;;;;;;;2.35;1.30;;;;;;;;;;10454051;28;20045;-55
2023/02/26 18:51:37;;;;;;;2.15;1.40;;;;;;;;;;10452876;28;20076;-55
2023/02/26 18:56:38;;;;;;;3.25;1.80;;;;;;;;;;10453007;28;20033;-57
2023/02/26 19:01:39;;;;;;;5.07;1.20;;;;;;;;;;10452378;28;20029;-54
2023/02/26 19:06:39;;;;;;;2.95;1.30;;;;;;;;;;10452619;28;20037;-58
2023/02/26 19:11:41;;;;;;;5.15;1.30;;;;;;;;;;10451313;28;20037;-56
2023/02/26 19:16:42;;;;;;;4.45;1.50;;;;;;;;;;10450531;28;20388;-57
2023/02/26 19:21:43;;;;;;;3.45;1.30;;;;;;;;;;10451960;28;20029;-56
2023/02/26 19:26:44;;;;;;;2.72;1.35;;;;;;;;;;10452190;28;20028;-57
2023/02/26 19:31:45;;;;;;;3.60;1.48;;;;;;;;;;10451866;28;20108;-55
2023/02/26 19:36:46;;;;;;;3.45;1.48;;;;;;;;;;10451893;28;20078;-57
2023/02/26 19:47:02;;;;;;;2.00;1.20;;;;;;;;;;10366921;28;20057;-67
2023/02/26 19:52:03;;;;;;;3.15;1.30;;;;;;;;;;10369248;28;20033;-67
2023/02/26 19:57:03;;;;;;;1.48;1.30;;;;;;;;;;10368791;28;20033;-67
2023/02/26 20:02:04;;;;;;;3.13;1.30;;;;;;;;;;10368893;28;20385;-69
2023/02/26 20:07:05;;;;;;;2.83;1.27;;;;;;;;;;10367160;28;20406;-61
2023/02/26 20:12:07;;;;;;;17.67;3.22;;;;;;;;;;10366421;28;20121;-61
2023/02/26 20:17:07;;;;;;;14.95;2.67;;;;;;;;;;10368339;28;20026;-61
2023/02/26 20:22:08;;;;;;;7.05;2.10;;;;;;;;;;10366656;28;20454;-51
2023/02/26 20:27:09;;;;;;;17.05;2.42;;;;;;;;;;10367415;28;20021;-52
2023/02/26 20:32:09;;;;;;;9.68;2.08;;;;;;;;;;10367438;28;20062;-49
2023/02/26 20:37:10;;;;;;;10.38;1.70;;;;;;;;;;10366989;28;20417;-57
2023/02/26 20:42:10;;;;;;;7.50;1.90;;;;;;;;;;10366906;28;20033;-48
2023/02/26 20:47:11;;;;;;;10.25;2.03;;;;;;;;;;10366677;28;20088;-50
2023/02/26 20:52:12;;;;;;;5.45;2.10;;;;;;;;;;10366708;28;20026;-51
2023/02/26 20:57:12;;;;;;;3.08;1.90;;;;;;;;;;10367478;28;20064;-52
2023/02/26 21:02:14;;;;;;;6.10;1.60;;;;;;;;;;10373831;28;20045;-52
2023/02/26 21:07:21;;;;;;;6.63;2.20;;;;;;;;;;10373337;28;20503;-51
2023/02/26 21:12:22;;;;;;;3.72;1.95;;;;;;;;;;10374151;28;20482;-56
2023/02/26 21:17:25;;;;;;;5.05;1.48;;;;;;;;;;10374717;28;20095;-50
2023/02/26 21:22:26;;;;;;;2.22;1.38;;;;;;;;;;10373398;28;20168;-50
2023/02/26 21:27:26;;;;;;;6.88;1.73;;;;;;;;;;10373623;28;20030;-50
2023/02/26 21:32:27;;;;;;;1.98;1.20;;;;;;;;;;10373120;28;20497;-53
2023/02/26 21:37:28;;;;;;;2.83;1.30;;;;;;;;;;10373548;28;20030;-50
2023/02/26 21:42:29;;;;;;;8.20;2.08;;;;;;;;;;10372417;28;20042;-51
2023/02/26 21:47:29;;;;;;;3.42;1.63;;;;;;;;;;10372727;28;20507;-51
2023/02/26 21:52:30;;;;;;;3.22;1.67;;;;;;;;;;10373052;28;20092;-52
2023/02/26 21:57:31;;;;;;;2.97;1.30;;;;;;;;;;10372456;28;20461;-56
2023/02/26 22:02:31;;;;;;;4.13;1.45;;;;;;;;;;10372896;28;20032;-52
2023/02/26 22:07:32;;;;;;;5.88;1.40;;;;;;;;;;10372512;28;20026;-52
2023/02/26 22:12:33;;;;;;;2.75;1.50;;;;;;;;;;10371827;28;20087;-52
2023/02/26 22:17:34;;;;;;;4.15;1.65;;;;;;;;;;10372146;28;20508;-52
2023/02/26 22:22:37;;;;;;;7.88;1.58;;;;;;;;;;10371821;28;20121;-52
2023/02/26 22:27:38;;;;;;;6.55;1.20;;;;;;;;;;10372526;28;20041;-52
2023/02/26 22:32:39;;;;;;;1.48;1.25;;;;;;;;;;10370325;28;20037;-49
2023/02/26 22:37:41;;;;;;;2.15;1.02;;;;;;;;;;10371304;28;20254;-55
2023/02/26 22:42:43;;;;;;;3.47;1.25;;;;;;;;;;10371150;28;20038;-57
2023/02/26 22:47:45;;;;;;;6.65;1.83;;;;;;;;;;10371858;28;20034;-57
2023/02/26 22:52:46;;;;;;;5.18;1.45;;;;;;;;;;10370308;28;20178;-58
2023/02/26 22:57:46;;;;;;;1.50;1.30;;;;;;;;;;10370380;28;20185;-58
2023/02/26 23:02:48;;;;;;;3.00;1.60;;;;;;;;;;10371022;28;20037;-58
2023/02/26 23:07:49;;;;;;;3.67;1.13;;;;;;;;;;10370014;28;20034;-58
2023/02/26 23:12:49;;;;;;;0.98;0.93;;;;;;;;;;10369716;28;20029;-58
2023/02/26 23:17:50;;;;;;;6.40;1.40;;;;;;;;;;10370781;28;20045;-58
2023/02/26 23:22:50;;;;;;;2.05;1.20;;;;;;;;;;10368625;28;20033;-58
2023/02/26 23:27:51;;;;;;;1.77;1.20;;;;;;;;;;10369187;28;20041;-58
2023/02/26 23:32:53;;;;;;;1.50;1.40;;;;;;;;;;10369260;28;20077;-58
2023/02/26 23:37:54;;;;;;;2.17;1.25;;;;;;;;;;10368970;28;20026;-58
2023/02/26 23:42:55;;;;;;;2.05;1.05;;;;;;;;;;10368581;28;20414;-58
2023/02/26 23:47:55;;;;;;;1.20;1.10;;;;;;;;;;10368935;28;20355;-58
2023/02/26 23:52:56;;;;;;;0.95;0.90;;;;;;;;;;10368756;28;20041;-58
2023/02/26 23:57:56;;;;;;;3.35;1.20;;;;;;;;;;10367315;28;20034;-57
